Time;durP1;ratioP1;P1;durP2;ratioP2;P2;SDS_P1;SDS_P2;PMS_P1;PMS_P2;Temp;Humidity;BMP_temperature;BMP_pressure;BME280_temperature;BME280_humidity;BME280_pressure;Samples;Min_cycle;Max_cycle;Signal;HPM_P1;HPM_P2
2022/01/16 00:00:27;;;;;;;141.30;28.47;;;-0.20;99.90;;;;;;5096112;28;20204;-73
2022/01/16 00:05:39;;;;;;;154.80;27.87;;;-0.20;99.90;;;;;;5096280;28;20199;-73
2022/01/16 00:08:05;;;;;;;311.63;42.83;;;-0.20;99.90;;;;;;5096029;28;20213;-73
2022/01/16 00:10:32;;;;;;;266.70;39.90;;;-0.30;99.90;;;;;;5095854;28;20289;-73
2022/01/16 00:13:00;;;;;;;138.20;26.93;;;-0.30;99.90;;;;;;5096113;28;20604;-73
2022/01/16 00:15:27;;;;;;;175.87;34.00;;;-0.40;99.90;;;;;;5096009;28;20283;-73
2022/01/16 00:17:59;;;;;;;638.30;85.27;;;-0.30;99.90;;;;;;5100059;28;20230;-73
2022/01/16 00:20:26;;;;;;;210.23;39.03;;;-0.30;99.90;;;;;;5095999;28;20200;-73
2022/01/16 00:22:53;;;;;;;112.47;26.93;;;-0.40;99.90;;;;;;5095776;28;20196;-73
2022/01/16 00:25:20;;;;;;;103.00;27.97;;;-0.30;99.90;;;;;;5095692;28;20197;-73
2022/01/16 00:27:47;;;;;;;110.03;29.13;;;-0.30;99.90;;;;;;5096610;28;20216;-72
2022/01/16 00:30:16;;;;;;;93.37;26.80;;;-0.30;99.90;;;;;;5099168;28;20205;-73
2022/01/16 00:32:42;;;;;;;117.90;30.83;;;-0.30;99.90;;;;;;5099603;28;20249;-72
2022/01/16 00:35:11;;;;;;;107.13;28.70;;;-0.30;99.90;;;;;;5099056;28;20252;-73
2022/01/16 00:37:38;;;;;;;270.13;44.70;;;-0.30;99.90;;;;;;5100954;28;20193;-73
2022/01/16 00:40:06;;;;;;;102.10;28.87;;;-0.30;99.90;;;;;;5101674;28;20196;-73
2022/01/16 00:42:32;;;;;;;104.03;27.37;;;-0.30;99.90;;;;;;5103404;28;20196;-73
2022/01/16 00:44:59;;;;;;;116.97;28.70;;;-0.30;99.90;;;;;;5101945;28;20196;-73
2022/01/16 00:47:27;;;;;;;91.97;29.17;;;-0.40;99.90;;;;;;5101131;28;20200;-73
2022/01/16 00:49:54;;;;;;;119.53;29.23;;;-0.30;99.90;;;;;;5100522;28;20197;-73
2022/01/16 00:52:20;;;;;;;131.70;29.53;;;-0.30;99.90;;;;;;5098682;28;20249;-73
2022/01/16 00:54:47;;;;;;;128.53;28.13;;;-0.40;99.90;;;;;;5098126;28;20200;-73
2022/01/16 00:57:14;;;;;;;120.70;26.63;;;-0.50;99.90;;;;;;5098488;28;20196;-73
2022/01/16 00:59:41;;;;;;;106.33;27.67;;;-0.50;99.90;;;;;;5096399;28;20200;-73
2022/01/16 01:02:07;;;;;;;103.20;27.03;;;-0.40;99.90;;;;;;5097844;28;20719;-73
2022/01/16 01:04:35;;;;;;;122.33;26.97;;;-0.40;99.90;;;;;;5100067;28;20192;-73
2022/01/16 01:07:02;;;;;;;116.87;27.17;;;-0.30;99.90;;;;;;5098393;28;20660;-73
2022/01/16 01:09:29;;;;;;;98.90;28.33;;;-0.40;99.90;;;;;;5096672;28;20295;-73
2022/01/16 01:11:55;;;;;;;94.17;28.17;;;-0.40;99.90;;;;;;5097240;28;20196;-73
2022/01/16 01:14:27;;;;;;;105.23;26.73;;;-0.40;99.90;;;;;;5099124;28;20687;-73
2022/01/16 01:16:55;;;;;;;88.87;28.80;;;-0.40;99.90;;;;;;5096741;28;20556;-73
2022/01/16 01:19:25;;;;;;;218.77;36.37;;;-0.40;99.90;;;;;;5096444;28;20196;-73
2022/01/16 01:21:54;;;;;;;84.80;25.70;;;-0.40;99.90;;;;;;5096240;28;20204;-73
2022/01/16 01:24:22;;;;;;;644.43;74.43;;;-0.40;99.90;;;;;;5096792;28;20729;-73
2022/01/16 01:26:54;;;;;;;94.27;27.93;;;-0.40;99.90;;;;;;5096655;28;20239;-74
2022/01/16 01:29:21;;;;;;;86.43;26.47;;;-0.40;99.90;;;;;;5096292;28;20754;-73
2022/01/16 01:31:51;;;;;;;210.30;35.93;;;-0.40;99.90;;;;;;5096590;28;20291;-73
2022/01/16 01:34:18;;;;;;;86.10;26.13;;;-0.40;99.90;;;;;;5096356;28;20200;-73
2022/01/16 01:36:48;;;;;;;83.07;24.40;;;-0.40;99.90;;;;;;5096384;28;20223;-73
2022/01/16 01:39:17;;;;;;;83.33;24.33;;;-0.40;99.90;;;;;;5097123;28;20705;-73
2022/01/16 01:41:44;;;;;;;75.60;24.37;;;-0.40;99.90;;;;;;5102263;28;20207;-73
2022/01/16 01:52:24;;;;;;;81.33;24.43;;;-0.30;99.90;;;;;;5096203;28;20662;-73
2022/01/16 01:54:53;;;;;;;75.10;23.70;;;-0.40;99.90;;;;;;5096287;28;20197;-74
2022/01/16 01:57:20;;;;;;;73.77;23.93;;;-0.40;99.90;;;;;;5095467;28;20674;-73
2022/01/16 01:59:46;;;;;;;75.60;25.03;;;-0.30;99.90;;;;;;5096001;28;20203;-73
2022/01/16 02:02:13;;;;;;;71.33;24.80;;;-0.30;99.90;;;;;;5095806;28;20238;-73
2022/01/16 02:04:40;;;;;;;78.07;25.10;;;-0.30;99.90;;;;;;5096026;28;20682;-73
2022/01/16 02:07:07;;;;;;;71.90;22.60;;;-0.30;99.90;;;;;;5095740;28;20651;-73
2022/01/16 02:09:33;;;;;;;62.63;22.37;;;-0.30;99.90;;;;;;5097553;28;20236;-73
2022/01/16 02:12:02;;;;;;;58.00;20.00;;;-0.30;99.90;;;;;;5096352;28;20200;-73
2022/01/16 02:14:32;;;;;;;60.30;21.50;;;-0.30;99.90;;;;;;5096044;28;20832;-73
2022/01/16 02:28:08;;;;;;;51.83;19.53;;;-0.40;99.90;;;;;;5101551;28;20219;-73
2022/01/16 02:31:00;;;;;;;63.33;19.77;;;-0.40;99.90;;;;;;5102108;28;20693;-73
2022/01/16 02:36:20;;;;;;;57.90;20.20;;;-0.40;99.90;;;;;;5080204;28;20199;-73
2022/01/16 02:38:49;;;;;;;60.07;20.77;;;-0.40;99.90;;;;;;5101208;28;20204;-73
2022/01/16 02:41:16;;;;;;;49.43;18.60;;;-0.40;99.90;;;;;;5101662;28;20245;-73
2022/01/16 02:43:47;;;;;;;44.77;17.40;;;-0.40;99.90;;;;;;5101625;28;20289;-73
2022/01/16 02:48:58;;;;;;;46.30;18.17;;;-0.40;99.90;;;;;;5093589;28;20222;-73
2022/01/16 02:51:28;;;;;;;50.47;18.70;;;-0.60;99.90;;;;;;5093557;28;20192;-73
2022/01/16 02:53:57;;;;;;;45.47;16.90;;;-0.60;99.90;;;;;;5093864;28;20193;-73
2022/01/16 02:56:24;;;;;;;856.67;105.07;;;-0.60;99.90;;;;;;5093764;28;20200;-73
2022/01/16 02:58:52;;;;;;;57.03;21.40;;;-0.70;99.90;;;;;;5093595;28;20195;-73
2022/01/16 03:01:19;;;;;;;46.13;19.70;;;-0.60;99.90;;;;;;5096023;28;20320;-73
2022/01/16 03:03:45;;;;;;;46.00;17.60;;;-0.60;99.90;;;;;;5102556;28;20699;-73
2022/01/16 03:06:13;;;;;;;53.60;18.00;;;-0.50;99.90;;;;;;5097661;28;20250;-73
2022/01/16 03:08:39;;;;;;;54.00;18.00;;;-0.50;99.90;;;;;;5097788;28;20243;-73
2022/01/16 03:11:22;;;;;;;50.27;18.60;;;-0.50;99.90;;;;;;5105744;28;20232;-73
2022/01/16 03:13:50;;;;;;;42.73;17.00;;;-0.50;99.90;;;;;;5102825;28;20196;-74
2022/01/16 03:16:18;;;;;;;44.63;15.73;;;-0.60;99.90;;;;;;5100426;28;20218;-73
2022/01/16 03:24:13;;;;;;;47.43;16.47;;;-0.60;99.90;;;;;;5105455;28;20283;-73
2022/01/16 03:26:42;;;;;;;132.40;23.10;;;-0.60;99.90;;;;;;5103768;28;20204;-73
2022/01/16 03:29:09;;;;;;;154.43;29.93;;;-0.60;99.90;;;;;;5100829;28;20231;-72
2022/01/16 03:31:36;;;;;;;40.63;16.70;;;-0.60;99.90;;;;;;5104942;28;20200;-72
2022/01/16 03:34:03;;;;;;;39.40;17.87;;;-0.50;99.90;;;;;;5100831;28;20200;-72
2022/01/16 03:36:30;;;;;;;314.10;46.70;;;-0.50;99.90;;;;;;5104317;28;20192;-73
2022/01/16 03:38:57;;;;;;;177.70;33.70;;;-0.60;99.90;;;;;;5103225;28;20321;-72
2022/01/16 03:41:26;;;;;;;45.87;17.77;;;-0.50;99.90;;;;;;5102034;28;20196;-74
2022/01/16 03:43:55;;;;;;;48.97;17.43;;;-0.60;99.90;;;;;;5106263;28;20216;-73
2022/01/16 03:46:22;;;;;;;40.90;16.60;;;-0.50;99.90;;;;;;5101367;28;20204;-73
2022/01/16 03:48:48;;;;;;;41.47;16.67;;;-0.60;99.90;;;;;;5103524;28;20228;-72
2022/01/16 03:51:15;;;;;;;50.87;18.10;;;-0.60;99.90;;;;;;5102449;28;20196;-73
2022/01/16 03:53:44;;;;;;;36.30;15.63;;;-0.60;99.90;;;;;;5103408;28;20192;-72
2022/01/16 03:56:11;;;;;;;44.63;17.87;;;-0.60;99.90;;;;;;5104611;28;20644;-72
2022/01/16 03:58:37;;;;;;;43.37;16.60;;;-0.50;99.90;;;;;;5102115;28;20197;-72
2022/01/16 04:01:05;;;;;;;38.07;16.10;;;-0.60;99.90;;;;;;5105168;28;20200;-72
2022/01/16 04:03:32;;;;;;;265.43;35.80;;;-0.60;99.90;;;;;;5101514;28;20197;-72
2022/01/16 04:05:58;;;;;;;42.77;17.90;;;-0.60;99.90;;;;;;5102906;28;20200;-72
2022/01/16 04:08:25;;;;;;;37.97;16.57;;;-0.60;99.90;;;;;;5102373;28;20200;-72
2022/01/16 04:10:52;;;;;;;38.20;16.27;;;-0.50;99.90;;;;;;5102189;28;20232;-73
2022/01/16 04:13:20;;;;;;;41.77;17.10;;;-0.60;99.90;;;;;;5102590;28;20248;-72
2022/01/16 04:15:47;;;;;;;43.50;16.60;;;-0.60;99.90;;;;;;5102523;28;20197;-72
2022/01/16 04:18:15;;;;;;;48.20;17.90;;;-0.60;99.90;;;;;;5104279;28;20196;-72
2022/01/16 04:20:41;;;;;;;40.80;17.20;;;-0.60;99.90;;;;;;5102350;28;20200;-72
2022/01/16 04:23:10;;;;;;;36.37;16.13;;;-0.70;99.90;;;;;;5103620;28;20196;-73
2022/01/16 04:25:36;;;;;;;41.63;17.20;;;-0.80;99.90;;;;;;5098950;28;20203;-72
2022/01/16 04:28:04;;;;;;;48.57;17.80;;;-0.90;99.90;;;;;;5097314;28;20204;-73
2022/01/16 04:30:32;;;;;;;34.93;16.53;;;-0.90;99.90;;;;;;5097158;28;20713;-72
2022/01/16 04:32:59;;;;;;;37.83;16.27;;;-0.90;99.90;;;;;;5097187;28;20258;-72
2022/01/16 04:35:27;;;;;;;40.57;17.73;;;-0.80;99.90;;;;;;5097290;28;20230;-72
2022/01/16 04:37:53;;;;;;;39.97;17.13;;;-0.80;99.90;;;;;;5096241;28;20732;-72
2022/01/16 04:40:22;;;;;;;42.20;19.27;;;-0.80;99.90;;;;;;5095562;28;20594;-72
2022/01/16 04:45:33;;;;;;;54.87;17.80;;;-0.70;99.90;;;;;;5095634;28;20204;-72
2022/01/16 04:47:59;;;;;;;41.70;18.10;;;-0.80;99.90;;;;;;5095500;28;20200;-73
2022/01/16 04:50:28;;;;;;;59.10;17.90;;;-0.90;99.90;;;;;;5096682;28;20285;-74
2022/01/16 04:52:54;;;;;;;47.67;20.17;;;-0.90;99.90;;;;;;5097062;28;20196;-73
2022/01/16 04:55:24;;;;;;;46.43;18.63;;;-0.90;99.90;;;;;;5098539;28;20226;-73
2022/01/16 04:57:51;;;;;;;46.30;20.07;;;-0.90;99.90;;;;;;5095496;28;20196;-74
2022/01/16 05:00:18;;;;;;;51.47;19.77;;;-0.90;99.90;;;;;;5095270;28;20208;-74
2022/01/16 05:02:45;;;;;;;46.90;19.20;;;-0.90;99.90;;;;;;5095110;28;20569;-72
2022/01/16 05:05:12;;;;;;;46.97;19.53;;;-0.80;99.90;;;;;;5094773;28;20200;-73
2022/01/16 05:07:40;;;;;;;242.93;38.60;;;-0.80;99.90;;;;;;5094937;28;20197;-73
2022/01/16 05:10:08;;;;;;;54.93;21.97;;;-0.80;99.90;;;;;;5094749;28;20293;-73
2022/01/16 05:12:38;;;;;;;53.77;21.43;;;-0.80;99.90;;;;;;5095038;28;20192;-73
2022/01/16 05:17:50;;;;;;;53.40;22.13;;;-0.80;99.90;;;;;;5095411;28;20195;-72
2022/01/16 05:20:17;;;;;;;52.13;21.70;;;-0.70;99.90;;;;;;5095128;28;20218;-73
2022/01/16 05:22:45;;;;;;;58.80;23.60;;;-0.70;99.90;;;;;;5094936;28;20317;-73
2022/01/16 05:25:15;;;;;;;53.23;21.73;;;-0.70;99.90;;;;;;5094750;28;20238;-73
2022/01/16 05:27:41;;;;;;;59.33;23.23;;;-0.70;99.90;;;;;;5094959;28;20284;-73
2022/01/16 05:30:09;;;;;;;55.53;23.10;;;-0.80;99.90;;;;;;5094836;28;20699;-73
2022/01/16 05:32:36;;;;;;;50.13;22.23;;;-0.80;99.90;;;;;;5094894;28;20196;-73
2022/01/16 05:35:03;;;;;;;55.77;21.73;;;-0.80;99.90;;;;;;5094745;28;20196;-72
2022/01/16 05:37:29;;;;;;;51.00;21.83;;;-0.80;99.90;;;;;;5094512;28;20225;-72
2022/01/16 05:39:58;;;;;;;51.83;22.40;;;-0.90;99.90;;;;;;5094543;28;20192;-72
2022/01/16 05:42:24;;;;;;;54.97;23.53;;;-0.90;99.90;;;;;;5094440;28;20208;-73
2022/01/16 05:44:51;;;;;;;54.97;21.93;;;-0.90;99.90;;;;;;5094816;28;20200;-73
2022/01/16 05:47:18;;;;;;;55.47;23.60;;;-0.90;99.90;;;;;;5094767;28;20687;-73
2022/01/16 05:49:44;;;;;;;55.90;23.00;;;-0.90;99.90;;;;;;5098477;28;20220;-73
2022/01/16 05:52:12;;;;;;;53.97;21.97;;;-0.90;99.90;;;;;;5094709;28;20250;-72
2022/01/16 05:54:39;;;;;;;51.93;23.83;;;-0.90;99.90;;;;;;5094377;28;20196;-73
2022/01/16 05:57:07;;;;;;;48.33;21.53;;;-0.90;99.90;;;;;;5094221;28;20196;-72
2022/01/16 05:59:34;;;;;;;46.37;22.83;;;-1.00;99.90;;;;;;5094580;28;20203;-73
2022/01/16 06:02:01;;;;;;;49.77;21.30;;;-1.00;99.90;;;;;;5094688;28;20195;-73
2022/01/16 06:04:28;;;;;;;53.10;24.03;;;-1.00;99.90;;;;;;5094409;28;20207;-73
2022/01/16 06:06:54;;;;;;;50.53;22.20;;;-1.00;99.90;;;;;;5093892;28;20236;-73
2022/01/16 06:09:21;;;;;;;52.63;23.90;;;-1.00;99.90;;;;;;5093624;28;20204;-73
2022/01/16 06:11:48;;;;;;;49.07;23.63;;;-1.00;99.90;;;;;;5095121;28;20299;-73
2022/01/16 06:14:16;;;;;;;46.90;22.33;;;-1.00;99.90;;;;;;5095220;28;20208;-73
2022/01/16 06:16:43;;;;;;;50.30;23.13;;;-1.00;99.90;;;;;;5095588;28;20234;-73
2022/01/16 06:19:09;;;;;;;48.33;23.93;;;-1.00;99.90;;;;;;5094715;28;20265;-73
2022/01/16 06:21:36;;;;;;;49.27;23.07;;;-0.90;99.90;;;;;;5093734;28;20246;-72
2022/01/16 06:24:03;;;;;;;52.60;22.73;;;-1.00;99.90;;;;;;5094285;28;20204;-72
2022/01/16 06:26:31;;;;;;;50.20;25.47;;;-1.00;99.90;;;;;;5094089;28;20193;-72
2022/01/16 06:28:57;;;;;;;49.13;23.13;;;-0.90;99.90;;;;;;5093875;28;20291;-72
2022/01/16 06:31:25;;;;;;;45.57;23.33;;;-0.90;99.90;;;;;;5093809;28;20231;-72
2022/01/16 06:33:52;;;;;;;49.63;23.37;;;-0.90;99.90;;;;;;5093660;28;20196;-73
2022/01/16 06:36:19;;;;;;;45.23;22.07;;;-0.90;99.90;;;;;;5092797;28;20203;-72
2022/01/16 06:38:46;;;;;;;45.77;21.50;;;-0.90;99.90;;;;;;5093587;28;20196;-73
2022/01/16 06:41:13;;;;;;;44.43;21.70;;;-0.90;99.90;;;;;;5093841;28;20200;-72
2022/01/16 06:43:40;;;;;;;45.93;23.77;;;-0.90;99.90;;;;;;5096043;28;20613;-73
2022/01/16 06:46:06;;;;;;;42.50;21.70;;;-0.80;99.90;;;;;;5094672;28;20203;-72
2022/01/16 06:48:34;;;;;;;45.10;22.03;;;-0.80;99.90;;;;;;5093598;28;20196;-72
2022/01/16 06:51:01;;;;;;;43.90;20.83;;;-0.90;99.90;;;;;;5093170;28;20228;-73
2022/01/16 06:53:28;;;;;;;45.30;20.63;;;-0.90;99.90;;;;;;5094629;28;20246;-72
2022/01/16 06:55:55;;;;;;;50.00;23.83;;;-0.90;99.90;;;;;;5093740;28;20196;-72
2022/01/16 06:58:21;;;;;;;43.47;22.43;;;-0.80;99.90;;;;;;5093623;28;20250;-72
2022/01/16 07:00:48;;;;;;;44.83;22.80;;;-0.80;99.90;;;;;;5093376;28;20208;-73
2022/01/16 07:03:15;;;;;;;42.30;21.03;;;-0.80;99.90;;;;;;5093229;28;20238;-73
2022/01/16 07:05:43;;;;;;;47.90;24.27;;;-0.80;99.90;;;;;;5092902;28;20222;-73
2022/01/16 07:08:10;;;;;;;41.70;22.17;;;-0.80;99.90;;;;;;5093733;28;20269;-73
2022/01/16 07:10:37;;;;;;;43.73;22.80;;;-0.80;99.90;;;;;;5093364;28;20258;-73
2022/01/16 07:13:04;;;;;;;47.60;24.73;;;-0.70;99.90;;;;;;5093004;28;20246;-73
2022/01/16 07:15:31;;;;;;;51.23;25.50;;;-0.70;99.90;;;;;;5092979;28;20203;-73
2022/01/16 07:17:58;;;;;;;48.20;24.70;;;-0.60;99.90;;;;;;5092992;28;20204;-73
2022/01/16 07:20:25;;;;;;;50.57;24.70;;;-0.70;99.90;;;;;;5093340;28;20212;-73
2022/01/16 07:22:53;;;;;;;50.37;26.50;;;-0.60;99.90;;;;;;5093529;28;20305;-73
2022/01/16 07:25:19;;;;;;;53.40;26.57;;;-0.60;99.90;;;;;;5093211;28;20297;-73
2022/01/16 07:27:46;;;;;;;51.03;27.17;;;-0.60;99.90;;;;;;5093178;28;20595;-73
2022/01/16 07:30:13;;;;;;;54.33;27.30;;;-0.60;99.90;;;;;;5093681;28;20216;-73
2022/01/16 07:32:40;;;;;;;55.70;29.00;;;-0.50;99.90;;;;;;5093570;28;20246;-73
2022/01/16 07:35:07;;;;;;;51.90;27.30;;;-0.50;99.90;;;;;;5093762;28;20279;-73
2022/01/16 07:37:34;;;;;;;58.27;31.40;;;-0.50;99.90;;;;;;5093637;28;20204;-73
2022/01/16 07:40:02;;;;;;;62.03;30.50;;;-0.40;99.90;;;;;;5096665;28;20204;-73
2022/01/16 07:42:29;;;;;;;59.57;30.60;;;-0.40;99.90;;;;;;5093133;28;20196;-73
2022/01/16 07:44:55;;;;;;;57.47;30.73;;;-0.40;99.90;;;;;;5093639;28;20200;-73
2022/01/16 07:47:22;;;;;;;56.67;30.03;;;-0.40;99.90;;;;;;5094412;28;20204;-74
2022/01/16 07:49:49;;;;;;;56.90;30.30;;;-0.50;99.90;;;;;;5096501;28;20652;-73
2022/01/16 07:52:15;;;;;;;62.20;31.77;;;-0.40;99.90;;;;;;5096551;28;20655;-73
2022/01/16 07:54:42;;;;;;;60.43;32.80;;;-0.40;99.90;;;;;;5097102;28;20656;-72
2022/01/16 07:57:10;;;;;;;62.87;30.33;;;-0.40;99.90;;;;;;5097521;28;20226;-73
2022/01/16 07:59:37;;;;;;;58.10;31.80;;;-0.40;99.90;;;;;;5096682;28;20199;-73
2022/01/16 08:02:04;;;;;;;61.93;30.80;;;-0.40;99.90;;;;;;5095853;28;20830;-72
2022/01/16 08:04:31;;;;;;;64.03;33.53;;;-0.30;99.90;;;;;;5096525;28;20232;-73
2022/01/16 08:06:58;;;;;;;58.90;32.13;;;-0.20;99.90;;;;;;5096525;28;20204;-73
2022/01/16 08:09:24;;;;;;;57.30;31.10;;;-0.20;99.90;;;;;;5096533;28;20200;-72
2022/01/16 08:11:51;;;;;;;56.83;31.93;;;-0.10;99.90;;;;;;5096814;28;20228;-72
2022/01/16 08:14:19;;;;;;;54.53;29.90;;;-0.10;99.90;;;;;;5095882;28;20463;-73
2022/01/16 08:16:46;;;;;;;59.93;32.37;;;-0.10;99.90;;;;;;5096722;28;20764;-73
2022/01/16 08:19:14;;;;;;;56.13;31.20;;;0.00;99.90;;;;;;5096732;28;20201;-73
2022/01/16 08:21:40;;;;;;;51.03;29.57;;;-0.10;99.90;;;;;;5096506;28;20258;-73
2022/01/16 08:24:07;;;;;;;53.77;29.57;;;-0.10;99.90;;;;;;5096201;28;20207;-73
2022/01/16 08:26:35;;;;;;;52.87;29.73;;;-0.10;99.90;;;;;;5096076;28;20246;-72
2022/01/16 08:29:01;;;;;;;50.13;28.50;;;0.00;99.90;;;;;;5096284;28;20222;-75
2022/01/16 08:31:29;;;;;;;56.30;29.47;;;-0.10;99.90;;;;;;5095897;28;20278;-72
2022/01/16 08:33:56;;;;;;;53.33;29.43;;;-0.10;99.90;;;;;;5097277;28;20222;-77
2022/01/16 08:36:23;;;;;;;52.10;29.23;;;-0.20;99.90;;;;;;5098485;28;20250;-72
2022/01/16 08:38:50;;;;;;;51.10;30.20;;;-0.10;99.90;;;;;;5095787;28;20192;-72
2022/01/16 08:41:16;;;;;;;58.60;31.23;;;-0.10;99.90;;;;;;5096126;28;20656;-72
2022/01/16 08:43:43;;;;;;;56.90;30.47;;;-0.10;99.90;;;;;;5095542;28;20208;-72
2022/01/16 08:46:10;;;;;;;59.70;31.33;;;-0.10;99.90;;;;;;5095615;28;20249;-73
2022/01/16 08:48:39;;;;;;;53.37;30.73;;;-0.10;99.90;;;;;;5095580;28;20192;-74
2022/01/16 08:51:06;;;;;;;48.53;28.10;;;0.00;99.90;;;;;;5095418;28;20236;-73
2022/01/16 08:53:34;;;;;;;53.87;31.37;;;-0.10;99.90;;;;;;5095167;28;20652;-73
2022/01/16 08:56:01;;;;;;;52.43;29.90;;;-0.10;99.90;;;;;;5095058;28;20200;-72
2022/01/16 08:58:28;;;;;;;50.07;29.20;;;0.00;99.90;;;;;;5095293;28;20219;-72
2022/01/16 09:00:55;;;;;;;50.93;28.63;;;0.00;99.90;;;;;;5095945;28;20202;-72
2022/01/16 09:03:23;;;;;;;50.13;30.37;;;0.00;99.90;;;;;;5095260;28;20199;-73
2022/01/16 09:05:52;;;;;;;59.43;34.87;;;0.00;99.90;;;;;;5095311;28;20254;-72
2022/01/16 09:08:19;;;;;;;54.87;32.43;;;0.00;99.90;;;;;;5094881;28;20211;-72
2022/01/16 09:10:46;;;;;;;49.67;27.13;;;0.10;99.90;;;;;;5095520;28;20236;-73
2022/01/16 09:13:15;;;;;;;57.27;32.67;;;0.00;99.90;;;;;;5095840;28;20204;-73
2022/01/16 09:15:43;;;;;;;53.43;28.93;;;0.00;99.90;;;;;;5096392;28;20560;-72
2022/01/16 09:18:10;;;;;;;58.87;32.43;;;-0.10;99.90;;;;;;5094909;28;20192;-71
2022/01/16 09:20:37;;;;;;;55.33;30.13;;;-0.10;99.90;;;;;;5094944;28;20580;-74
2022/01/16 09:23:05;;;;;;;57.47;32.67;;;0.00;99.90;;;;;;5082280;28;20656;-73
2022/01/16 09:25:32;;;;;;;59.30;32.60;;;0.00;99.90;;;;;;5075492;28;20250;-75
2022/01/16 09:27:58;;;;;;;55.20;31.03;;;0.00;99.90;;;;;;5077403;28;20189;-75
2022/01/16 09:30:26;;;;;;;55.90;30.23;;;0.00;99.90;;;;;;5078645;28;20200;-71
2022/01/16 09:32:53;;;;;;;63.33;33.07;;;-0.10;99.90;;;;;;5075168;28;20635;-73
2022/01/16 09:35:20;;;;;;;57.23;32.13;;;-0.10;99.90;;;;;;5074454;28;20220;-73
2022/01/16 09:37:46;;;;;;;56.80;31.20;;;-0.10;99.90;;;;;;5074340;28;20721;-73
2022/01/16 09:40:17;;;;;;;57.17;30.70;;;-0.10;99.90;;;;;;5073662;28;20193;-73
2022/01/16 09:42:44;;;;;;;61.77;33.80;;;-0.10;99.90;;;;;;5074380;28;20201;-73
2022/01/16 09:45:12;;;;;;;66.77;30.70;;;-0.10;99.90;;;;;;5074458;28;20600;-73
2022/01/16 09:47:39;;;;;;;63.97;32.20;;;-0.10;99.90;;;;;;5074582;28;20207;-75
2022/01/16 09:50:08;;;;;;;62.97;34.37;;;-0.10;99.90;;;;;;5074878;28;20218;-73
2022/01/16 09:52:36;;;;;;;72.47;33.80;;;-0.10;99.90;;;;;;5074455;28;20250;-73
2022/01/16 09:55:04;;;;;;;65.97;32.17;;;-0.10;99.90;;;;;;5074112;28;20197;-74
2022/01/16 09:57:32;;;;;;;72.03;34.90;;;-0.10;99.90;;;;;;5074663;28;20193;-74
2022/01/16 09:59:59;;;;;;;69.23;34.10;;;-0.20;99.90;;;;;;5074180;28;20635;-75
2022/01/16 10:02:26;;;;;;;66.07;32.63;;;-0.20;99.90;;;;;;5075505;28;20607;-76
2022/01/16 10:04:53;;;;;;;56.40;26.63;;;-0.20;99.90;;;;;;5076172;28;20208;-76
2022/01/16 10:07:20;;;;;;;74.50;35.03;;;-0.20;99.90;;;;;;5074263;28;20197;-74
2022/01/16 10:10:07;;;;;;;71.47;34.17;;;-0.20;99.90;;;;;;5073076;28;20228;-75
2022/01/16 10:12:35;;;;;;;76.43;34.73;;;-0.20;99.90;;;;;;5074511;28;20699;-76
2022/01/16 10:15:16;;;;;;;68.97;35.03;;;-0.20;99.90;;;;;;5078035;28;20199;-82
2022/01/16 10:17:45;;;;;;;74.90;34.13;;;-0.20;99.90;;;;;;5079134;28;20185;-75
2022/01/16 10:20:14;;;;;;;68.20;33.33;;;-0.20;99.90;;;;;;5075659;28;20208;-74
2022/01/16 10:22:43;;;;;;;66.10;30.47;;;-0.20;99.90;;;;;;5074671;28;20196;-75
2022/01/16 10:25:14;;;;;;;69.27;33.50;;;-0.20;99.90;;;;;;5082558;28;20185;-81
2022/01/16 10:27:44;;;;;;;72.23;33.03;;;-0.20;99.90;;;;;;5077767;28;20169;-77
2022/01/16 10:30:14;;;;;;;64.80;27.60;;;-0.20;99.90;;;;;;5074409;28;20208;-73
2022/01/16 10:32:42;;;;;;;61.20;31.07;;;-0.30;99.90;;;;;;5073825;28;20278;-76
2022/01/16 10:35:11;;;;;;;68.73;31.73;;;-0.30;99.90;;;;;;5074133;28;20197;-77
2022/01/16 10:37:39;;;;;;;64.17;30.97;;;-0.30;99.90;;;;;;5074463;28;20201;-78
2022/01/16 10:40:09;;;;;;;60.77;27.77;;;-0.30;99.90;;;;;;5074226;28;20196;-74
2022/01/16 10:42:36;;;;;;;55.37;27.40;;;-0.50;99.90;;;;;;5073878;28;20205;-74
2022/01/16 10:45:08;;;;;;;61.37;28.17;;;-0.50;99.90;;;;;;5073422;28;20201;-73
2022/01/16 10:47:38;;;;;;;49.73;23.47;;;-0.50;99.90;;;;;;5073747;28;20197;-74
2022/01/16 10:50:14;;;;;;;62.63;29.83;;;-0.60;99.90;;;;;;5073621;28;20200;-72
2022/01/16 10:52:56;;;;;;;58.47;27.80;;;-0.60;99.90;;;;;;5073362;28;20227;-73
2022/01/16 10:55:25;;;;;;;57.97;28.53;;;-0.60;99.90;;;;;;5078837;28;20201;-76
2022/01/16 10:58:01;;;;;;;59.07;27.73;;;-0.60;99.90;;;;;;5078383;28;20197;-74
2022/01/16 11:00:29;;;;;;;42.80;21.13;;;-0.60;99.90;;;;;;5077889;28;20196;-76
2022/01/16 11:03:00;;;;;;;42.30;21.13;;;-0.70;99.90;;;;;;5077417;28;20683;-75
2022/01/16 11:05:27;;;;;;;38.47;20.93;;;-0.60;99.90;;;;;;5078070;28;20196;-74
2022/01/16 11:07:58;;;;;;;38.87;20.87;;;-0.60;99.90;;;;;;5077403;28;20250;-72
2022/01/16 11:10:28;;;;;;;36.53;19.23;;;-0.60;99.90;;;;;;5077394;28;20228;-73
2022/01/16 11:12:57;;;;;;;32.07;16.50;;;-0.60;99.90;;;;;;5076960;28;20225;-76
2022/01/16 11:15:24;;;;;;;27.77;15.13;;;-0.70;99.90;;;;;;5076579;28;20197;-73
2022/01/16 11:17:53;;;;;;;29.37;16.87;;;-0.70;99.90;;;;;;5076082;28;20247;-75
2022/01/16 11:20:27;;;;;;;30.60;17.60;;;-0.70;99.90;;;;;;5076270;28;20607;-74
2022/01/16 11:25:39;;;;;;;33.93;17.80;;;-0.80;99.90;;;;;;5067719;28;20199;-74
2022/01/16 11:28:11;;;;;;;32.63;16.73;;;-0.70;99.90;;;;;;5077593;28;20193;-73
2022/01/16 11:30:41;;;;;;;28.83;15.53;;;-0.70;99.90;;;;;;5078749;28;20204;-74
2022/01/16 11:33:09;;;;;;;25.93;14.87;;;-0.70;99.90;;;;;;5078491;28;20239;-72
2022/01/16 11:35:43;;;;;;;28.87;14.93;;;-0.60;99.90;;;;;;5077894;28;20189;-73
2022/01/16 11:38:10;;;;;;;26.67;15.17;;;-0.70;99.90;;;;;;5077700;28;20653;-73
2022/01/16 11:40:45;;;;;;;25.83;15.13;;;-0.80;99.90;;;;;;5077559;28;20213;-72
2022/01/16 11:43:16;;;;;;;26.27;14.73;;;-0.70;99.90;;;;;;5077957;28;20201;-72
2022/01/16 11:45:51;;;;;;;25.67;14.33;;;-0.70;99.90;;;;;;5077793;28;20544;-75
2022/01/16 11:48:40;;;;;;;28.03;15.27;;;-0.70;99.90;;;;;;5080822;28;20207;-74
2022/01/16 11:51:28;;;;;;;28.43;15.63;;;-0.80;99.90;;;;;;5082019;28;20212;-73
2022/01/16 11:54:06;;;;;;;26.30;15.27;;;-0.80;99.90;;;;;;5082001;28;20262;-74
2022/01/16 11:56:57;;;;;;;27.10;14.53;;;-0.80;99.90;;;;;;5081764;28;20197;-73
2022/01/16 11:59:26;;;;;;;26.50;13.97;;;-0.80;99.90;;;;;;5083258;28;20197;-74
2022/01/16 12:01:55;;;;;;;27.13;15.27;;;-0.80;99.90;;;;;;5081541;28;20203;-73
2022/01/16 12:04:58;;;;;;;31.40;15.23;;;-0.80;99.90;;;;;;5077181;28;20231;-74
2022/01/16 12:08:08;;;;;;;33.60;17.53;;;-0.80;99.90;;;;;;5078916;28;20208;-75
2022/01/16 12:10:37;;;;;;;32.73;16.93;;;-0.80;99.90;;;;;;5076278;28;20240;-75
2022/01/16 12:13:05;;;;;;;32.53;16.50;;;-0.70;99.90;;;;;;5076833;28;20231;-75
2022/01/16 12:15:32;;;;;;;30.90;16.40;;;-0.70;99.90;;;;;;5081926;28;20209;-76
2022/01/16 12:18:00;;;;;;;32.20;17.53;;;-0.70;99.90;;;;;;5094101;28;20200;-75
2022/01/16 12:20:30;;;;;;;31.30;15.67;;;-0.70;99.90;;;;;;5083936;28;20200;-74
2022/01/16 12:22:58;;;;;;;32.37;16.70;;;-0.60;99.90;;;;;;5076112;28;20292;-77
2022/01/16 12:25:27;;;;;;;33.93;17.47;;;-0.70;99.90;;;;;;5079045;28;20215;-78
2022/01/16 12:28:23;;;;;;;30.40;18.57;;;-0.60;99.90;;;;;;5104946;28;20188;-82
2022/01/16 12:30:52;;;;;;;30.07;16.87;;;-0.60;99.90;;;;;;5101057;28;20196;-77
2022/01/16 12:33:24;;;;;;;33.80;18.57;;;-0.70;99.90;;;;;;5099849;28;20250;-78
2022/01/16 12:36:13;;;;;;;36.03;18.70;;;-0.70;99.90;;;;;;5097826;28;20254;-77
2022/01/16 12:38:45;;;;;;;31.97;17.87;;;-0.70;99.90;;;;;;5092457;28;20658;-77
2022/01/16 12:41:14;;;;;;;31.90;17.90;;;-0.70;99.90;;;;;;5076416;28;20238;-70
2022/01/16 12:43:47;;;;;;;33.80;16.33;;;-0.70;99.90;;;;;;5076258;28;20684;-78
2022/01/16 12:46:15;;;;;;;30.97;17.90;;;-0.60;99.90;;;;;;5078258;28;20201;-75
2022/01/16 12:48:44;;;;;;;32.37;16.57;;;-0.70;99.90;;;;;;5077225;28;20201;-76
2022/01/16 12:51:15;;;;;;;27.20;15.77;;;-0.60;99.90;;;;;;5078087;28;20201;-77
2022/01/16 12:53:44;;;;;;;27.53;15.40;;;-0.70;99.90;;;;;;5090129;28;20743;-76
2022/01/16 12:56:33;;;;;;;27.07;14.83;;;-0.70;99.90;;;;;;5094888;28;20668;-76
2022/01/16 12:59:11;;;;;;;28.33;15.03;;;-0.70;99.90;;;;;;5080666;28;20647;-74
2022/01/16 13:01:38;;;;;;;26.97;14.80;;;-0.60;99.90;;;;;;5095209;28;20254;-73
2022/01/16 13:04:05;;;;;;;27.57;14.17;;;-0.60;99.90;;;;;;5096948;28;20200;-77
2022/01/16 13:06:34;;;;;;;30.33;16.17;;;-0.60;99.90;;;;;;5095776;28;20197;-75
2022/01/16 13:09:05;;;;;;;31.23;17.70;;;-0.60;99.90;;;;;;5097630;28;20260;-76
2022/01/16 13:11:34;;;;;;;33.07;17.83;;;-0.40;99.90;;;;;;5099439;28;20196;-74
2022/01/16 13:14:02;;;;;;;34.17;17.87;;;-0.40;99.90;;;;;;5095728;28;20262;-77